createdAt,value
2018-04-16T16:29:11.839Z,51.20
2018-04-16T16:31:39.574Z,53.87
2018-04-16T16:34:07.267Z,49.43
2018-04-16T16:36:35.847Z,57.33
2018-04-16T16:39:03.755Z,52.67
2018-04-16T16:41:31.635Z,47.47
2018-04-16T16:43:59.789Z,58.43
2018-04-16T16:46:27.455Z,53.90
2018-04-16T16:48:55.092Z,61.07
2018-04-16T16:51:22.840Z,54.23
2018-04-16T16:53:51.427Z,56.50
2018-04-16T16:56:19.171Z,51.57
2018-04-16T16:58:46.830Z,54.50
2018-04-16T17:01:14.500Z,45.90
2018-04-16T17:03:42.510Z,49.37
2018-04-16T17:06:10.352Z,50.10
2018-04-16T17:08:37.986Z,57.53
2018-04-16T17:11:05.635Z,49.00
2018-04-16T17:13:38.622Z,53.23
2018-04-16T17:16:18.446Z,53.47
2018-04-16T17:18:48.760Z,50.23
2018-04-16T17:21:29.291Z,50.77
2018-04-16T17:24:06.261Z,51.80
2018-04-16T17:26:46.825Z,49.57
2018-04-16T17:29:25.870Z,52.60
2018-04-16T17:32:01.851Z,50.03
2018-04-16T17:34:41.744Z,48.00
2018-04-16T17:37:11.888Z,46.87
2018-04-16T17:39:47.605Z,50.57
2018-04-16T17:42:28.289Z,51.27
2018-04-16T17:44:59.422Z,51.57
2018-04-16T17:47:36.009Z,49.13
2018-04-16T17:50:03.866Z,55.67
2018-04-16T17:52:39.300Z,56.10
2018-04-16T17:55:18.282Z,57.00
2018-04-16T17:57:55.381Z,57.13
2018-04-16T18:00:31.839Z,42.63
2018-04-16T18:03:07.514Z,65.97
2018-04-16T18:05:45.851Z,54.97
2018-04-16T18:08:22.938Z,47.93
2018-04-16T18:11:02.228Z,62.33
2018-04-16T18:13:39.813Z,55.57
2018-04-16T18:16:19.494Z,55.83
2018-04-16T18:18:53.379Z,55.07
2018-04-16T18:21:37.028Z,57.07
2018-04-16T18:24:16.909Z,51.87
2018-04-16T18:26:50.850Z,58.70
2018-04-16T18:29:28.412Z,50.00
2018-04-16T18:32:08.101Z,52.97
2018-04-16T18:37:33.865Z,44.60
2018-04-16T18:40:05.052Z,48.63
2018-04-16T18:42:44.333Z,60.87
2018-04-16T18:45:21.539Z,44.80
2018-04-16T18:47:56.050Z,69.07
2018-04-16T18:50:29.680Z,60.57
2018-04-16T18:53:07.927Z,59.23
2018-04-16T18:55:47.375Z,75.97
2018-04-16T18:58:25.457Z,181.97
2018-04-16T19:00:53.085Z,134.17
2018-04-16T19:03:29.173Z,93.87
2018-04-16T19:06:10.475Z,86.50
2018-04-16T19:08:38.237Z,64.70
2018-04-16T19:13:42.637Z,53.50
2018-04-16T19:16:21.748Z,49.10
2018-04-16T19:18:49.395Z,46.90
2018-04-16T19:21:22.922Z,40.87
2018-04-16T19:23:50.538Z,41.67
2018-04-16T19:26:18.226Z,37.50
2018-04-16T19:28:45.934Z,40.83
2018-04-16T19:31:14.044Z,29.53
2018-04-16T19:33:48.241Z,36.27
2018-04-16T19:36:16.009Z,32.37
2018-04-16T19:38:45.404Z,33.43
2018-04-16T19:41:13.316Z,41.07
2018-04-16T19:43:40.996Z,32.10
2018-04-16T19:46:09.465Z,41.43
2018-04-16T19:48:42.789Z,37.13
2018-04-16T19:51:10.404Z,38.90
2018-04-16T19:53:39.182Z,41.97
2018-04-16T19:56:13.226Z,37.63
2018-04-16T19:58:41.002Z,36.87
2018-04-16T20:01:08.732Z,30.73
2018-04-16T20:03:41.959Z,29.77
2018-04-16T20:06:09.600Z,38.50
2018-04-16T20:08:37.514Z,29.57
2018-04-16T20:11:05.108Z,29.17
2018-04-16T20:13:33.489Z,30.40
2018-04-16T20:16:01.845Z,24.87
2018-04-16T20:18:29.444Z,29.60
2018-04-16T20:20:57.143Z,32.53
2018-04-16T20:23:24.733Z,24.97
2018-04-16T20:25:52.324Z,35.63
2018-04-16T20:28:19.919Z,30.30
2018-04-16T20:30:47.730Z,30.27
2018-04-16T20:33:16.192Z,29.73
2018-04-16T20:35:43.833Z,30.13
2018-04-16T20:38:11.444Z,32.43
2018-04-16T20:40:39.893Z,32.33
2018-04-16T20:43:07.525Z,33.87
2018-04-16T20:45:35.130Z,27.77
2018-04-16T20:48:03.513Z,31.67
2018-04-16T20:50:31.865Z,29.10
2018-04-16T20:52:59.457Z,21.67
2018-04-16T20:55:27.821Z,26.13
2018-04-16T20:57:55.450Z,27.07
2018-04-16T21:00:23.062Z,28.63
2018-04-16T21:02:51.511Z,28.37
2018-04-16T21:05:19.163Z,30.17
2018-04-16T21:07:46.803Z,21.27
2018-04-16T21:12:48.005Z,25.47
2018-04-16T21:15:15.603Z,26.50
2018-04-16T21:17:43.192Z,24.70
2018-04-16T21:20:10.776Z,25.50
2018-04-16T21:22:38.376Z,25.60
2018-04-16T21:25:05.972Z,27.07
2018-04-16T21:27:33.552Z,20.23
2018-04-16T21:30:01.168Z,23.93
2018-04-16T21:32:28.820Z,22.03
2018-04-16T21:34:56.396Z,21.00
2018-04-16T21:37:24.070Z,19.20
2018-04-16T21:39:51.654Z,21.80
2018-04-16T21:42:19.240Z,20.00
2018-04-16T21:44:47.589Z,16.97
2018-04-16T21:47:15.172Z,17.27
2018-04-16T21:49:43.538Z,11.30
2018-04-16T21:52:11.157Z,13.10
2018-04-16T21:54:38.736Z,17.60
2018-04-16T21:57:07.084Z,13.60
2018-04-16T21:59:34.668Z,11.23
2018-04-16T22:02:02.259Z,15.90
2018-04-16T22:04:29.840Z,8.27
2018-04-16T22:06:58.185Z,13.23
2018-04-16T22:09:25.809Z,5.97
2018-04-16T22:11:53.392Z,7.47
2018-04-16T22:14:21.028Z,12.17
2018-04-16T22:16:48.613Z,17.97
2018-04-16T22:19:16.196Z,21.73
2018-04-16T22:21:43.779Z,9.50
2018-04-16T22:24:12.125Z,12.77
2018-04-16T22:26:39.743Z,7.03
2018-04-16T22:29:07.325Z,6.97
2018-04-16T22:31:34.913Z,11.50
2018-04-16T22:34:02.532Z,5.80
2018-04-16T22:36:30.144Z,6.53
2018-04-16T22:38:57.752Z,6.80
2018-04-16T22:41:25.344Z,7.17
2018-04-16T22:43:52.973Z,7.97
2018-04-16T22:46:20.554Z,4.73
2018-04-16T22:48:48.140Z,6.60
2018-04-16T22:51:15.721Z,10.20
2018-04-16T22:53:44.081Z,7.13
2018-04-16T22:56:11.664Z,6.43
2018-04-16T22:58:40.015Z,10.97
2018-04-16T23:01:07.597Z,7.60
2018-04-16T23:03:35.943Z,7.60
2018-04-16T23:06:03.551Z,5.83
2018-04-16T23:08:31.169Z,8.23
2018-04-16T23:10:58.763Z,8.33
2018-04-16T23:13:27.128Z,7.00
2018-04-16T23:15:55.469Z,6.70
2018-04-16T23:18:23.051Z,8.80
2018-04-16T23:20:50.637Z,7.30
2018-04-16T23:23:18.992Z,7.43
2018-04-16T23:25:46.580Z,43.90
2018-04-16T23:28:14.169Z,11.03
2018-04-16T23:30:41.807Z,8.23
2018-04-16T23:33:09.403Z,11.73
2018-04-16T23:35:36.989Z,66.17
2018-04-16T23:38:04.580Z,34.93
2018-04-16T23:40:32.933Z,10.97
2018-04-16T23:43:00.516Z,8.07
2018-04-16T23:45:28.900Z,7.47
2018-04-16T23:47:56.488Z,8.93
2018-04-16T23:50:24.072Z,8.60
2018-04-16T23:52:51.701Z,8.00
2018-04-16T23:55:19.292Z,9.37
2018-04-16T23:57:46.880Z,12.33
